createdAt,value
2022-12-04T00:00:34.894Z,37.85
2022-12-04T00:03:02.663Z,34.67
2022-12-04T00:05:30.311Z,39.88
2022-12-04T00:07:59.450Z,36.67
2022-12-04T00:10:27.194Z,31.52
2022-12-04T00:12:55.070Z,35.33
2022-12-04T00:15:25.561Z,38.00
2022-12-04T00:17:54.039Z,35.13
2022-12-04T00:20:22.964Z,30.70
2022-12-04T00:22:50.748Z,37.33
2022-12-04T00:25:20.118Z,37.00
2022-12-04T00:27:47.859Z,34.00
2022-12-04T00:30:15.663Z,33.83
2022-12-04T00:32:43.306Z,41.03
2022-12-04T00:35:11.036Z,36.67
2022-12-04T00:37:38.794Z,35.00
2022-12-04T00:40:07.392Z,31.48
2022-12-04T00:42:36.466Z,36.70
2022-12-04T00:45:04.196Z,34.28
2022-12-04T00:47:31.828Z,35.80
2022-12-04T00:49:59.409Z,32.58
2022-12-04T00:52:28.352Z,33.97
2022-12-04T00:54:56.212Z,35.55
2022-12-04T00:57:23.827Z,36.80
2022-12-04T00:59:53.056Z,34.78
2022-12-04T01:02:20.872Z,33.95
2022-12-04T01:04:48.648Z,38.90
2022-12-04T01:07:16.417Z,30.08
2022-12-04T01:09:44.090Z,36.28
2022-12-04T01:12:14.914Z,37.38
2022-12-04T01:14:45.388Z,36.03
2022-12-04T01:17:14.398Z,33.80
2022-12-04T01:19:42.029Z,41.17
2022-12-04T01:22:09.659Z,40.30
2022-12-04T01:24:37.311Z,29.40
2022-12-04T01:27:05.252Z,39.95
2022-12-04T01:29:32.922Z,44.40
2022-12-04T01:32:00.659Z,30.38
2022-12-04T01:34:30.061Z,35.90
2022-12-04T01:36:57.677Z,37.30
2022-12-04T01:39:25.436Z,37.20
2022-12-04T01:41:53.062Z,40.00
2022-12-04T01:44:22.045Z,32.83
2022-12-04T01:46:52.147Z,39.92
2022-12-04T01:49:22.059Z,30.65
2022-12-04T01:51:52.754Z,30.55
2022-12-04T01:54:22.736Z,38.15
2022-12-04T01:56:51.692Z,44.85
2022-12-04T01:59:22.401Z,41.78
2022-12-04T02:01:53.564Z,37.38
2022-12-04T02:04:21.385Z,28.90
2022-12-04T02:06:49.117Z,36.28
2022-12-04T02:09:23.006Z,34.22
2022-12-04T02:11:57.534Z,36.92
2022-12-04T02:14:30.611Z,42.17
2022-12-04T02:17:03.342Z,35.10
2022-12-04T02:19:42.578Z,35.45
2022-12-04T02:22:14.777Z,46.35
2022-12-04T02:24:50.159Z,34.47
2022-12-04T02:27:25.149Z,45.67
2022-12-04T02:29:58.664Z,33.03
2022-12-04T02:32:31.606Z,40.88
2022-12-04T02:35:00.995Z,34.28
2022-12-04T02:37:31.782Z,30.13
2022-12-04T02:40:04.382Z,41.17
2022-12-04T02:42:34.950Z,40.28
2022-12-04T02:45:07.475Z,29.35
2022-12-04T02:47:36.973Z,38.85
2022-12-04T02:50:07.677Z,33.05
2022-12-04T02:52:37.328Z,37.42
2022-12-04T02:55:08.778Z,36.65
2022-12-04T02:57:39.283Z,38.95
2022-12-04T03:00:09.260Z,37.03
2022-12-04T03:02:39.963Z,36.65
2022-12-04T03:05:10.528Z,33.75
2022-12-04T03:07:40.145Z,39.10
2022-12-04T03:10:11.025Z,34.72
2022-12-04T03:12:41.341Z,43.05
2022-12-04T03:15:13.893Z,43.10
2022-12-04T03:17:45.144Z,44.97
2022-12-04T03:20:14.335Z,34.50
2022-12-04T03:22:43.245Z,42.35
2022-12-04T03:25:11.837Z,44.53
2022-12-04T03:27:43.716Z,35.08
2022-12-04T03:30:13.432Z,49.20
2022-12-04T03:32:44.415Z,44.53
2022-12-04T03:35:14.282Z,45.78
2022-12-04T03:37:43.718Z,43.75
2022-12-04T03:40:16.860Z,39.92
2022-12-04T03:42:46.837Z,40.75
2022-12-04T03:45:20.735Z,47.92
2022-12-04T03:47:52.728Z,46.45
2022-12-04T03:50:24.000Z,42.90
2022-12-04T03:52:54.350Z,47.35
2022-12-04T03:55:25.523Z,39.42
2022-12-04T03:57:54.001Z,52.92
2022-12-04T04:00:23.601Z,46.58
2022-12-04T04:02:54.187Z,43.10
2022-12-04T04:05:22.230Z,45.33
2022-12-04T04:07:52.344Z,47.00
2022-12-04T04:10:21.488Z,58.45
2022-12-04T04:13:10.955Z,42.38
2022-12-04T04:16:00.597Z,37.20
2022-12-04T04:18:46.623Z,50.05
2022-12-04T04:24:17.695Z,47.25
2022-12-04T04:26:46.512Z,42.05
2022-12-04T04:29:14.488Z,47.60
2022-12-04T04:31:44.986Z,48.85
2022-12-04T04:34:17.527Z,42.88
2022-12-04T04:36:50.313Z,46.30
2022-12-04T04:39:20.983Z,40.00
2022-12-04T04:41:51.903Z,44.83
2022-12-04T04:44:22.777Z,49.22
2022-12-04T04:46:53.645Z,46.97
2022-12-04T04:49:23.798Z,49.25
2022-12-04T04:51:51.537Z,50.15
2022-12-04T04:54:20.896Z,49.17
2022-12-04T04:56:48.786Z,50.80
2022-12-04T04:59:16.406Z,44.63
2022-12-04T05:01:45.381Z,35.95
2022-12-04T05:04:14.522Z,43.83
2022-12-04T05:06:42.161Z,38.70
2022-12-04T05:09:09.810Z,43.80
2022-12-04T05:11:37.411Z,46.05
2022-12-04T05:14:05.985Z,48.67
2022-12-04T05:16:33.703Z,44.08
2022-12-04T05:19:18.942Z,45.08
2022-12-04T05:21:47.894Z,48.10
2022-12-04T05:24:15.531Z,49.03
2022-12-04T05:26:43.071Z,42.33
2022-12-04T05:29:11.867Z,43.05
2022-12-04T05:31:39.584Z,39.63
2022-12-04T05:34:07.597Z,45.88
2022-12-04T05:36:35.242Z,47.90
2022-12-04T05:39:04.663Z,37.35
2022-12-04T05:41:32.285Z,42.03
2022-12-04T05:43:59.928Z,48.05
2022-12-04T05:46:27.661Z,43.50
2022-12-04T05:48:55.332Z,50.55
2022-12-04T05:51:22.897Z,47.35
2022-12-04T05:53:52.386Z,47.08
2022-12-04T05:56:21.344Z,50.70
2022-12-04T05:58:49.306Z,37.10
2022-12-04T06:01:17.865Z,51.25
2022-12-04T06:03:45.534Z,40.13
2022-12-04T06:06:20.738Z,47.47
2022-12-04T06:08:49.458Z,48.65
2022-12-04T06:11:18.204Z,40.47
2022-12-04T06:13:47.738Z,42.42
2022-12-04T06:16:15.879Z,46.05
2022-12-04T06:18:43.638Z,45.47
2022-12-04T06:21:11.803Z,49.75
2022-12-04T06:23:39.510Z,36.40
2022-12-04T06:26:07.834Z,44.63
2022-12-04T06:28:35.894Z,42.15
2022-12-04T06:31:05.634Z,49.63
2022-12-04T06:33:33.551Z,53.05
2022-12-04T06:36:01.763Z,35.67
2022-12-04T06:38:29.613Z,43.00
2022-12-04T06:40:57.219Z,41.97
2022-12-04T06:43:24.959Z,36.80
2022-12-04T06:46:00.446Z,46.88
2022-12-04T06:51:01.542Z,42.65
2022-12-04T06:53:30.578Z,36.92
2022-12-04T06:55:59.084Z,38.03
2022-12-04T06:58:27.068Z,43.08
2022-12-04T07:00:54.859Z,40.42
2022-12-04T07:03:22.739Z,45.20
2022-12-04T07:05:50.781Z,41.35
2022-12-04T07:08:19.931Z,39.80
2022-12-04T07:10:47.574Z,42.83
2022-12-04T07:13:15.376Z,37.88
2022-12-04T07:15:43.099Z,50.10
2022-12-04T07:18:10.726Z,44.88
2022-12-04T07:20:40.836Z,36.67
2022-12-04T07:23:08.496Z,43.65
2022-12-04T07:25:41.567Z,40.30
2022-12-04T07:28:09.154Z,44.05
2022-12-04T07:30:38.270Z,42.47
2022-12-04T07:33:06.057Z,37.95
2022-12-04T07:35:33.650Z,43.70
2022-12-04T07:38:01.417Z,41.88
2022-12-04T07:40:29.418Z,44.20
2022-12-04T07:42:58.410Z,46.92
2022-12-04T07:45:26.065Z,43.30
2022-12-04T07:47:53.648Z,34.28
2022-12-04T07:50:21.316Z,34.28
2022-12-04T07:52:48.926Z,36.80
2022-12-04T07:55:21.628Z,50.97
2022-12-04T07:57:50.732Z,43.38
2022-12-04T08:00:20.459Z,39.65
2022-12-04T08:02:48.099Z,46.42
2022-12-04T08:05:15.797Z,46.83
2022-12-04T08:07:43.479Z,39.58
2022-12-04T08:10:11.282Z,45.28
2022-12-04T08:12:38.987Z,42.40
2022-12-04T08:15:07.371Z,39.55
2022-12-04T08:17:36.357Z,39.00
2022-12-04T08:20:04.818Z,35.50
2022-12-04T08:22:32.428Z,47.53
2022-12-04T08:25:00.032Z,48.03
2022-12-04T08:27:27.626Z,33.45
2022-12-04T08:29:55.995Z,41.90
2022-12-04T08:32:24.503Z,38.83
2022-12-04T08:34:55.859Z,39.33
2022-12-04T08:37:24.002Z,46.53
2022-12-04T08:39:51.734Z,41.40
2022-12-04T08:42:19.319Z,40.40
2022-12-04T08:44:46.960Z,45.65
2022-12-04T08:47:14.967Z,40.30
2022-12-04T08:49:42.611Z,46.72
2022-12-04T08:52:11.596Z,43.50
2022-12-04T08:54:39.449Z,50.05
2022-12-04T08:57:07.289Z,34.80
2022-12-04T08:59:35.087Z,45.42
2022-12-04T09:02:02.770Z,41.53
2022-12-04T09:04:30.625Z,45.78
2022-12-04T09:06:58.466Z,41.15
2022-12-04T09:09:27.515Z,43.70
2022-12-04T09:11:55.312Z,37.78
2022-12-04T09:14:25.843Z,45.90
2022-12-04T09:16:54.104Z,43.47
2022-12-04T09:19:22.640Z,37.65
2022-12-04T09:21:50.308Z,48.42
2022-12-04T09:24:18.072Z,40.38
2022-12-04T09:26:47.029Z,41.50
2022-12-04T09:29:14.682Z,41.30
2022-12-04T09:31:42.375Z,36.10
2022-12-04T09:34:10.191Z,37.05
2022-12-04T09:36:38.213Z,48.00
2022-12-04T09:39:05.965Z,39.65
2022-12-04T09:42:01.027Z,43.47
2022-12-04T09:44:30.684Z,38.22
2022-12-04T09:47:00.550Z,42.38
2022-12-04T09:49:30.503Z,38.50
2022-12-04T09:52:00.449Z,35.22
2022-12-04T09:54:29.501Z,44.10
2022-12-04T09:57:00.647Z,35.60
2022-12-04T09:59:29.212Z,41.28
2022-12-04T10:01:59.784Z,31.35
2022-12-04T10:04:27.390Z,34.78
2022-12-04T10:07:02.008Z,38.58
2022-12-04T10:09:31.439Z,38.27
2022-12-04T10:12:08.684Z,53.22
2022-12-04T10:14:45.889Z,40.20
2022-12-04T10:17:37.740Z,38.92
2022-12-04T10:20:09.495Z,38.92
2022-12-04T10:22:40.924Z,33.42
2022-12-04T10:25:12.793Z,45.50
2022-12-04T10:27:43.771Z,33.90
2022-12-04T10:30:17.076Z,47.22
2022-12-04T10:32:45.918Z,39.00
2022-12-04T10:35:20.660Z,43.97
2022-12-04T10:37:49.149Z,40.55
2022-12-04T10:40:20.217Z,38.67
2022-12-04T10:42:53.741Z,36.80
2022-12-04T10:45:21.988Z,33.88
2022-12-04T10:47:50.505Z,39.03
2022-12-04T10:50:19.414Z,26.15
2022-12-04T10:52:47.140Z,29.05
2022-12-04T10:55:15.304Z,33.83
2022-12-04T10:57:44.017Z,35.95
2022-12-04T11:00:35.515Z,42.03
2022-12-04T11:03:09.667Z,35.40
2022-12-04T11:05:39.932Z,28.27
2022-12-04T11:08:08.756Z,29.13
2022-12-04T11:10:37.625Z,33.55
2022-12-04T11:13:06.261Z,28.17
2022-12-04T11:15:36.523Z,33.08
2022-12-04T11:18:17.134Z,37.30
2022-12-04T11:20:50.586Z,29.55
2022-12-04T11:23:19.038Z,30.75
2022-12-04T11:25:47.888Z,38.53
2022-12-04T11:28:33.783Z,32.65
2022-12-04T11:31:07.505Z,31.63
2022-12-04T11:33:38.796Z,30.40
2022-12-04T11:36:09.346Z,31.60
2022-12-04T11:38:37.201Z,33.85
2022-12-04T11:41:06.571Z,33.97
2022-12-04T11:43:37.856Z,33.00
2022-12-04T11:46:06.580Z,36.88
2022-12-04T11:48:43.330Z,29.52
2022-12-04T11:51:16.342Z,33.10
2022-12-04T11:53:45.937Z,33.20
2022-12-04T11:56:17.963Z,27.30
2022-12-04T11:58:50.485Z,25.55
2022-12-04T12:01:36.084Z,28.10
2022-12-04T12:04:15.125Z,31.15
2022-12-04T12:06:50.197Z,29.52
2022-12-04T12:09:24.114Z,34.15
2022-12-04T12:11:56.843Z,31.58
2022-12-04T12:14:28.000Z,28.80
2022-12-04T12:16:59.262Z,28.35
2022-12-04T12:19:46.426Z,25.13
2022-12-04T12:22:21.828Z,19.67
2022-12-04T12:24:54.603Z,29.60
2022-12-04T12:27:29.784Z,26.15
2022-12-04T12:30:01.073Z,38.00
2022-12-04T12:32:37.252Z,31.15
2022-12-04T12:35:06.231Z,22.98
2022-12-04T12:37:38.762Z,35.35
2022-12-04T12:40:08.500Z,24.95
2022-12-04T12:42:39.803Z,29.10
2022-12-04T12:45:09.133Z,27.83
2022-12-04T12:47:40.740Z,29.95
2022-12-04T12:50:12.929Z,28.10
2022-12-04T12:52:44.808Z,26.58
2022-12-04T12:55:16.197Z,31.15
2022-12-04T12:57:44.556Z,26.58
2022-12-04T13:00:15.648Z,26.90
2022-12-04T13:02:46.445Z,27.13
2022-12-04T13:05:15.615Z,32.97
2022-12-04T13:07:46.833Z,28.75
2022-12-04T13:10:16.890Z,32.85
2022-12-04T13:12:46.357Z,24.85
2022-12-04T13:15:17.656Z,31.40
2022-12-04T13:17:46.770Z,27.63
2022-12-04T13:20:18.209Z,26.95
2022-12-04T13:22:52.916Z,26.02
2022-12-04T13:25:25.899Z,28.30
2022-12-04T13:27:59.640Z,27.15
2022-12-04T13:30:31.166Z,28.02
2022-12-04T13:33:17.383Z,31.15
2022-12-04T13:36:03.041Z,27.98
2022-12-04T13:38:36.482Z,33.78
2022-12-04T13:41:05.107Z,31.33
2022-12-04T13:43:35.045Z,31.92
2022-12-04T13:46:03.663Z,25.92
2022-12-04T13:48:33.142Z,32.25
2022-12-04T13:51:05.200Z,29.30
2022-12-04T13:53:37.265Z,30.15
2022-12-04T13:56:09.479Z,29.60
2022-12-04T13:58:39.055Z,24.88
2022-12-04T14:01:13.113Z,26.45
2022-12-04T14:03:47.287Z,29.30
2022-12-04T14:06:22.016Z,33.17
2022-12-04T14:08:55.779Z,32.42
2022-12-04T14:11:24.222Z,26.17
2022-12-04T14:13:53.624Z,26.45
2022-12-04T14:16:23.411Z,28.88
2022-12-04T14:18:52.368Z,25.30
2022-12-04T14:21:20.066Z,24.90
2022-12-04T14:23:47.860Z,24.33
2022-12-04T14:27:03.554Z,26.15
2022-12-04T14:29:37.427Z,26.38
2022-12-04T14:34:34.145Z,21.30
2022-12-04T14:37:02.916Z,24.80
2022-12-04T14:39:32.410Z,24.02
2022-12-04T14:42:07.471Z,25.88
2022-12-04T14:44:35.188Z,22.58
2022-12-04T14:47:10.711Z,24.77
2022-12-04T14:49:46.537Z,24.55
2022-12-04T14:52:17.277Z,26.10
2022-12-04T14:54:50.391Z,32.83
2022-12-04T14:57:28.033Z,26.45
2022-12-04T14:59:56.756Z,28.73
2022-12-04T15:02:28.582Z,28.05
2022-12-04T15:04:56.517Z,38.25
2022-12-04T15:07:26.174Z,30.90
2022-12-04T15:10:12.192Z,33.65
2022-12-04T15:15:15.290Z,37.17
2022-12-04T15:17:42.934Z,30.48
2022-12-04T15:20:11.871Z,36.50
2022-12-04T15:22:39.761Z,39.40
2022-12-04T15:25:08.078Z,39.83
2022-12-04T15:27:36.434Z,35.30
2022-12-04T15:30:04.927Z,41.05
2022-12-04T15:32:34.079Z,48.75
2022-12-04T15:35:03.149Z,36.20
2022-12-04T15:37:31.770Z,41.22
2022-12-04T15:39:59.996Z,48.67
2022-12-04T15:42:28.474Z,40.42
2022-12-04T15:45:00.972Z,42.55
2022-12-04T15:47:29.374Z,44.55
2022-12-04T15:50:12.120Z,35.95
2022-12-04T15:52:49.077Z,47.88
2022-12-04T15:55:18.196Z,46.47
2022-12-04T15:57:51.626Z,41.10
2022-12-04T16:00:24.680Z,45.80
2022-12-04T16:02:52.489Z,43.05
2022-12-04T16:05:32.750Z,46.45
2022-12-04T16:08:02.577Z,42.70
2022-12-04T16:10:31.449Z,46.42
2022-12-04T16:13:00.900Z,49.70
2022-12-04T16:15:40.187Z,49.70
2022-12-04T16:18:08.429Z,41.42
2022-12-04T16:20:36.507Z,36.22
2022-12-04T16:23:05.785Z,50.63
2022-12-04T16:25:33.509Z,38.60
2022-12-04T16:28:01.745Z,36.97
2022-12-04T16:30:30.904Z,34.88
2022-12-04T16:32:58.529Z,42.65
2022-12-04T16:35:26.205Z,41.17
2022-12-04T16:37:53.931Z,38.92
2022-12-04T16:40:22.897Z,37.00
2022-12-04T16:42:50.570Z,45.90
2022-12-04T16:45:22.785Z,36.45
2022-12-04T16:47:50.412Z,44.92
2022-12-04T16:50:18.060Z,36.95
2022-12-04T16:52:45.951Z,37.03
2022-12-04T16:55:17.348Z,42.28
2022-12-04T16:57:46.481Z,39.17
2022-12-04T17:00:14.838Z,34.30
2022-12-04T17:02:42.833Z,40.25
2022-12-04T17:05:17.878Z,39.00
2022-12-04T17:07:45.587Z,40.63
2022-12-04T17:10:21.794Z,38.10
2022-12-04T17:12:54.419Z,34.58
2022-12-04T17:15:22.177Z,43.15
2022-12-04T17:17:49.912Z,40.97
2022-12-04T17:20:18.352Z,40.45
2022-12-04T17:22:46.079Z,32.63
2022-12-04T17:25:13.760Z,33.97
2022-12-04T17:27:41.500Z,33.67
2022-12-04T17:30:11.800Z,39.03
2022-12-04T17:32:39.483Z,30.25
2022-12-04T17:35:08.105Z,36.13
2022-12-04T17:37:36.643Z,38.65
2022-12-04T17:40:04.750Z,31.50
2022-12-04T17:42:33.005Z,40.08
2022-12-04T17:45:00.983Z,59.10
2022-12-04T17:47:30.039Z,58.40
2022-12-04T17:49:58.715Z,48.20
2022-12-04T17:52:26.418Z,42.00
2022-12-04T17:54:54.127Z,40.70
2022-12-04T17:57:23.744Z,42.75
2022-12-04T17:59:52.012Z,37.33
2022-12-04T18:02:19.708Z,50.35
2022-12-04T18:04:48.653Z,50.40
2022-12-04T18:07:16.403Z,47.45
2022-12-04T18:09:43.995Z,43.55
2022-12-04T18:12:12.250Z,44.25
2022-12-04T18:14:40.029Z,41.13
2022-12-04T18:17:07.700Z,43.13
2022-12-04T18:19:35.455Z,40.50
2022-12-04T18:22:04.499Z,46.67
2022-12-04T18:24:32.071Z,34.58
2022-12-04T18:26:59.698Z,30.73
2022-12-04T18:29:27.786Z,38.58
2022-12-04T18:31:55.577Z,38.97
2022-12-04T18:34:23.454Z,39.88
2022-12-04T18:36:51.387Z,41.72
2022-12-04T18:39:21.563Z,34.03
2022-12-04T18:41:49.412Z,35.60
2022-12-04T18:44:17.568Z,36.58
2022-12-04T18:46:45.487Z,44.92
2022-12-04T18:49:13.163Z,37.30
2022-12-04T18:51:42.880Z,36.33
2022-12-04T18:54:13.054Z,39.55
2022-12-04T18:56:42.379Z,38.83
2022-12-04T18:59:11.277Z,36.22
2022-12-04T19:01:39.327Z,39.85
2022-12-04T19:04:08.007Z,35.30
2022-12-04T19:06:36.644Z,53.33
2022-12-04T19:09:05.819Z,48.65
2022-12-04T19:11:33.614Z,35.63
2022-12-04T19:14:08.287Z,38.47
2022-12-04T19:16:40.576Z,38.75
2022-12-04T19:19:09.020Z,44.55
2022-12-04T19:21:36.726Z,43.00
2022-12-04T19:24:04.530Z,40.35
2022-12-04T19:26:33.092Z,39.10
2022-12-04T19:29:03.506Z,41.72
2022-12-04T19:31:31.929Z,41.22
2022-12-04T19:33:59.664Z,41.13
2022-12-04T19:36:28.042Z,38.83
2022-12-04T19:38:56.164Z,45.42
2022-12-04T19:41:25.616Z,53.33
2022-12-04T19:43:53.956Z,40.53
2022-12-04T19:46:25.960Z,39.55
2022-12-04T19:48:54.728Z,33.53
2022-12-04T19:51:22.488Z,41.05
2022-12-04T19:53:50.431Z,39.90
2022-12-04T19:56:19.214Z,45.85
2022-12-04T19:58:47.168Z,41.53
2022-12-04T20:01:15.819Z,41.30
2022-12-04T20:03:44.862Z,33.60
2022-12-04T20:06:13.337Z,42.38
2022-12-04T20:08:41.374Z,39.92
2022-12-04T20:11:11.740Z,40.60
2022-12-04T20:13:39.617Z,30.65
2022-12-04T20:16:09.387Z,41.90
2022-12-04T20:18:37.838Z,38.10
2022-12-04T20:21:11.120Z,44.67
2022-12-04T20:23:41.367Z,42.65
2022-12-04T20:26:09.812Z,38.75
2022-12-04T20:28:37.801Z,42.00
2022-12-04T20:31:11.904Z,54.33
2022-12-04T20:33:41.182Z,41.88
2022-12-04T20:36:10.492Z,51.83
2022-12-04T20:38:38.439Z,43.17
2022-12-04T20:41:06.671Z,45.28
2022-12-04T20:43:34.499Z,43.78
2022-12-04T20:46:02.935Z,41.70
2022-12-04T20:48:30.582Z,41.92
2022-12-04T20:51:01.694Z,46.47
2022-12-04T20:53:31.495Z,41.90
2022-12-04T20:55:59.253Z,41.17
2022-12-04T20:58:27.171Z,43.33
2022-12-04T21:00:54.794Z,53.60
2022-12-04T21:03:22.573Z,48.85
2022-12-04T21:05:50.832Z,55.17
2022-12-04T21:08:39.124Z,44.25
2022-12-04T21:11:08.186Z,41.40
2022-12-04T21:13:53.254Z,53.55
2022-12-04T21:16:21.063Z,49.47
2022-12-04T21:18:48.772Z,60.13
2022-12-04T21:21:16.474Z,41.60
2022-12-04T21:23:44.105Z,45.15
2022-12-04T21:26:14.371Z,48.47
2022-12-04T21:28:42.008Z,53.42
2022-12-04T21:31:10.278Z,41.65
2022-12-04T21:33:39.028Z,42.20
2022-12-04T21:36:08.308Z,48.83
2022-12-04T21:38:36.255Z,49.95
2022-12-04T21:41:04.514Z,49.50
2022-12-04T21:43:33.838Z,47.05
2022-12-04T21:46:08.822Z,41.63
2022-12-04T21:51:13.254Z,39.92
2022-12-04T21:53:54.858Z,58.67
2022-12-04T21:56:22.975Z,53.80
2022-12-04T21:58:52.436Z,46.63
2022-12-04T22:01:21.264Z,58.38
2022-12-04T22:03:49.069Z,61.42
2022-12-04T22:06:16.762Z,56.47
2022-12-04T22:08:44.756Z,46.55
2022-12-04T22:11:13.004Z,49.58
2022-12-04T22:13:40.667Z,58.50
2022-12-04T22:16:12.213Z,56.67
2022-12-04T22:18:39.901Z,47.15
2022-12-04T22:21:08.654Z,45.58
2022-12-04T22:23:36.570Z,45.30
2022-12-04T22:26:07.896Z,48.65
2022-12-04T22:28:35.581Z,45.45
2022-12-04T22:31:04.297Z,52.75
2022-12-04T22:33:33.346Z,47.55
2022-12-04T22:36:04.822Z,51.28
2022-12-04T22:38:32.543Z,36.90
2022-12-04T22:41:01.602Z,53.88
2022-12-04T22:43:29.631Z,42.42
2022-12-04T22:45:57.438Z,52.42
2022-12-04T22:48:25.403Z,52.78
2022-12-04T22:50:58.155Z,48.35
2022-12-04T22:53:26.019Z,39.90
2022-12-04T22:55:53.708Z,40.83
2022-12-04T22:58:21.391Z,41.00
2022-12-04T23:00:50.074Z,51.67
2022-12-04T23:03:17.720Z,55.92
2022-12-04T23:05:45.390Z,46.10
2022-12-04T23:08:14.440Z,54.40
2022-12-04T23:10:42.145Z,49.22
2022-12-04T23:13:09.769Z,44.72
2022-12-04T23:15:38.230Z,50.72
2022-12-04T23:18:06.494Z,47.13
2022-12-04T23:20:34.165Z,49.83
2022-12-04T23:23:01.834Z,48.28
2022-12-04T23:25:30.788Z,39.83
2022-12-04T23:27:58.488Z,53.20
2022-12-04T23:30:28.468Z,51.05
2022-12-04T23:32:57.581Z,49.38
2022-12-04T23:35:25.919Z,48.20
2022-12-04T23:37:53.512Z,48.00
2022-12-04T23:40:21.269Z,43.53
2022-12-04T23:42:50.229Z,45.78
2022-12-04T23:45:17.880Z,47.47
2022-12-04T23:47:45.464Z,46.55
2022-12-04T23:50:13.054Z,48.67
2022-12-04T23:52:40.703Z,50.03
2022-12-04T23:55:08.980Z,62.15
2022-12-04T23:57:36.584Z,45.03
